Time;durP1;ratioP1;P1;durP2;ratioP2;P2;SDS_P1;SDS_P2;PMS_P1;PMS_P2;Temp;Humidity;BMP_temperature;BMP_pressure;BME280_temperature;BME280_humidity;BME280_pressure;Samples;Min_cycle;Max_cycle;Signal;HPM_P1;HPM_P2
2021/10/05 00:01:28;;;;;;;3.22;3.13;;;15.80;73.00;;;;;;5032035;28;20390;-81
2021/10/05 00:03:54;;;;;;;3.70;3.50;;;15.80;73.00;;;;;;5018789;28;20060;-81
2021/10/05 00:06:20;;;;;;;3.42;3.30;;;15.80;73.00;;;;;;5034597;28;20373;-81
2021/10/05 00:08:46;;;;;;;3.30;3.17;;;15.80;73.10;;;;;;5034102;28;20025;-81
2021/10/05 00:11:13;;;;;;;3.20;3.10;;;15.80;73.10;;;;;;5033746;28;20033;-81
2021/10/05 00:13:40;;;;;;;3.38;3.28;;;15.80;73.10;;;;;;5033693;28;20037;-81
2021/10/05 00:16:07;;;;;;;2.90;2.80;;;15.80;73.10;;;;;;5026286;28;20030;-81
2021/10/05 00:18:35;;;;;;;3.30;3.20;;;15.80;73.20;;;;;;5032625;28;20048;-81
2021/10/05 00:21:02;;;;;;;3.20;3.10;;;15.90;73.20;;;;;;5034012;28;20046;-81
2021/10/05 00:23:28;;;;;;;3.72;3.53;;;15.80;73.20;;;;;;5032810;28;20147;-81
2021/10/05 00:25:54;;;;;;;3.47;3.35;;;15.80;73.20;;;;;;5032151;28;20048;-81
2021/10/05 00:28:20;;;;;;;3.88;3.67;;;15.80;73.30;;;;;;5033866;28;20396;-81
2021/10/05 00:30:46;;;;;;;3.20;3.10;;;15.80;73.40;;;;;;5033253;28;20492;-82
2021/10/05 00:33:12;;;;;;;3.45;3.33;;;15.80;73.50;;;;;;5033943;28;20497;-81
2021/10/05 00:35:38;;;;;;;3.33;3.17;;;15.80;73.50;;;;;;5016202;28;20021;-81
2021/10/05 00:38:05;;;;;;;3.63;3.42;;;15.80;73.50;;;;;;5032910;28;20510;-81
2021/10/05 00:40:31;;;;;;;3.22;3.13;;;15.80;73.50;;;;;;5029887;28;20040;-81
2021/10/05 00:42:57;;;;;;;3.28;3.17;;;15.80;73.50;;;;;;5033782;28;20395;-81
2021/10/05 00:45:23;;;;;;;3.28;3.17;;;15.80;73.60;;;;;;5033274;28;20044;-81
2021/10/05 00:47:49;;;;;;;3.55;3.38;;;15.80;73.60;;;;;;5033077;28;20042;-81
2021/10/05 00:50:16;;;;;;;3.25;3.15;;;15.80;73.60;;;;;;5033349;28;20404;-81
2021/10/05 00:52:43;;;;;;;3.08;2.97;;;15.80;73.60;;;;;;5033293;28;20033;-81
2021/10/05 00:55:12;;;;;;;3.38;3.28;;;15.80;73.60;;;;;;5023636;28;20476;-81
2021/10/05 00:57:38;;;;;;;3.13;3.03;;;15.80;73.60;;;;;;5031977;28;20044;-81
2021/10/05 01:00:05;;;;;;;3.15;3.05;;;15.80;73.60;;;;;;5032921;28;20403;-81
2021/10/05 01:02:31;;;;;;;3.33;3.22;;;15.80;73.60;;;;;;5032609;28;20017;-82
2021/10/05 01:04:57;;;;;;;3.38;3.28;;;15.80;73.60;;;;;;5031839;28;20030;-81
2021/10/05 01:07:23;;;;;;;3.33;3.22;;;15.80;73.70;;;;;;5033078;28;20030;-81
2021/10/05 01:09:49;;;;;;;3.13;3.03;;;15.80;73.70;;;;;;5032280;28;20056;-81
2021/10/05 01:12:16;;;;;;;3.33;3.22;;;15.90;73.80;;;;;;5031877;28;20395;-81
2021/10/05 01:14:42;;;;;;;3.58;3.38;;;15.90;73.80;;;;;;5032703;28;20037;-81
2021/10/05 01:17:08;;;;;;;2.95;2.85;;;15.90;73.80;;;;;;5014385;28;20039;-81
2021/10/05 01:19:34;;;;;;;3.00;2.90;;;15.90;73.80;;;;;;5031244;28;20484;-81
2021/10/05 01:22:00;;;;;;;3.30;3.20;;;15.90;73.80;;;;;;5032479;28;20026;-82
2021/10/05 01:24:26;;;;;;;10.05;3.97;;;15.90;73.80;;;;;;5014826;28;20037;-81
2021/10/05 01:26:54;;;;;;;3.00;2.90;;;15.90;74.70;;;;;;5025813;28;20480;-81
2021/10/05 01:29:21;;;;;;;3.33;3.22;;;15.90;73.80;;;;;;5031346;28;20029;-81
2021/10/05 01:31:48;;;;;;;9.70;3.30;;;15.90;73.90;;;;;;5031407;28;20519;-81
2021/10/05 01:34:15;;;;;;;3.22;3.13;;;15.90;73.90;;;;;;5031658;28;20033;-81
2021/10/05 01:36:41;;;;;;;3.22;3.13;;;15.90;73.90;;;;;;5032562;28;20195;-81
2021/10/05 01:39:28;;;;;;;3.25;3.05;;;15.90;74.00;;;;;;5031891;28;20049;-81
2021/10/05 01:42:05;;;;;;;3.25;3.15;;;15.90;74.00;;;;;;5031458;28;20042;-81
2021/10/05 01:44:31;;;;;;;3.28;3.17;;;15.90;74.00;;;;;;5022663;28;20022;-81
2021/10/05 01:46:57;;;;;;;3.20;3.10;;;15.90;74.10;;;;;;5023929;28;20025;-81
2021/10/05 01:49:23;;;;;;;3.25;3.13;;;15.90;74.20;;;;;;5013359;28;20036;-81
2021/10/05 01:51:50;;;;;;;3.45;3.33;;;15.90;74.20;;;;;;5030560;28;20048;-81
2021/10/05 01:54:16;;;;;;;3.22;3.13;;;15.90;74.30;;;;;;5032704;28;20392;-81
2021/10/05 01:56:42;;;;;;;3.22;3.13;;;15.80;74.30;;;;;;5030625;28;20405;-81
2021/10/05 01:59:09;;;;;;;3.53;3.38;;;15.90;74.40;;;;;;5031554;28;20051;-81
2021/10/05 02:01:35;;;;;;;6.32;3.20;;;15.90;74.40;;;;;;5012957;28;20046;-81
2021/10/05 02:04:01;;;;;;;11.13;3.83;;;15.90;74.50;;;;;;5027458;28;20040;-81
2021/10/05 02:06:28;;;;;;;4.68;4.47;;;15.90;74.50;;;;;;5023522;28;20143;-81
2021/10/05 02:08:54;;;;;;;3.13;3.03;;;15.90;74.50;;;;;;5028411;28;20059;-81
2021/10/05 02:11:20;;;;;;;3.38;3.22;;;15.90;74.50;;;;;;5029543;28;20101;-81
2021/10/05 02:13:46;;;;;;;3.03;2.92;;;15.90;74.50;;;;;;5028697;28;20508;-81
2021/10/05 02:16:12;;;;;;;2.85;2.75;;;15.90;74.50;;;;;;5021864;28;20041;-80
2021/10/05 02:18:38;;;;;;;2.95;2.85;;;15.90;74.50;;;;;;5029547;28;20468;-81
2021/10/05 02:21:05;;;;;;;3.55;3.35;;;16.00;74.50;;;;;;5028051;28;20512;-81
2021/10/05 02:24:39;;;;;;;3.00;2.90;;;16.00;75.30;;;;;;5029278;28;20503;-81
2021/10/05 02:26:23;;;;;;;3.15;3.05;;;16.00;74.60;;;;;;5029601;28;20029;-81
2021/10/05 02:28:49;;;;;;;3.10;3.00;;;16.00;74.70;;;;;;5029626;28;20030;-81
2021/10/05 02:31:15;;;;;;;3.05;2.95;;;16.00;74.80;;;;;;5027100;28;20072;-81
2021/10/05 02:33:41;;;;;;;3.10;3.00;;;16.00;74.80;;;;;;5029088;28;20041;-81
2021/10/05 02:36:07;;;;;;;3.17;3.08;;;16.00;74.80;;;;;;5061276;28;20038;-81
2021/10/05 02:38:34;;;;;;;3.22;3.13;;;16.00;74.80;;;;;;5031204;28;20033;-81
2021/10/05 02:41:00;;;;;;;3.05;2.95;;;16.00;74.80;;;;;;5030061;28;20037;-81
2021/10/05 02:43:26;;;;;;;3.17;2.97;;;16.00;74.90;;;;;;5031417;28;20048;-81
2021/10/05 02:45:52;;;;;;;2.90;2.80;;;16.00;74.90;;;;;;5015611;28;20446;-81
2021/10/05 02:48:18;;;;;;;3.10;3.00;;;16.10;75.00;;;;;;5038174;28;20045;-81
2021/10/05 02:50:44;;;;;;;3.20;3.10;;;16.00;75.00;;;;;;5037556;28;20045;-81
2021/10/05 02:53:10;;;;;;;2.95;2.85;;;16.00;75.00;;;;;;5037080;28;20037;-81
2021/10/05 02:55:36;;;;;;;3.10;3.00;;;16.00;75.00;;;;;;5038007;28;20037;-81
2021/10/05 02:58:02;;;;;;;3.03;2.92;;;16.00;75.10;;;;;;5037872;28;20037;-81
2021/10/05 03:00:29;;;;;;;3.22;3.10;;;16.10;75.10;;;;;;5036130;28;20042;-81
2021/10/05 03:02:55;;;;;;;3.05;2.95;;;16.10;75.20;;;;;;5037289;28;20060;-81
2021/10/05 03:05:21;;;;;;;2.85;2.75;;;16.10;75.20;;;;;;5037388;28;20033;-81
2021/10/05 03:07:48;;;;;;;2.90;2.80;;;16.10;75.20;;;;;;5036958;28;20388;-81
2021/10/05 03:10:14;;;;;;;4.95;4.10;;;16.10;75.20;;;;;;5037526;28;20048;-81
2021/10/05 03:12:41;;;;;;;3.00;2.90;;;16.10;75.20;;;;;;5037511;28;20383;-81
2021/10/05 03:15:07;;;;;;;2.97;2.88;;;16.10;75.30;;;;;;5052066;28;20037;-81
2021/10/05 03:17:33;;;;;;;3.00;2.90;;;16.10;75.40;;;;;;5037430;28;20037;-81
2021/10/05 03:19:59;;;;;;;2.95;2.85;;;16.10;75.40;;;;;;5036163;28;20052;-81
2021/10/05 03:22:25;;;;;;;10.52;3.28;;;16.10;75.40;;;;;;5037956;28;20030;-81
2021/10/05 03:24:51;;;;;;;5.50;3.45;;;16.10;75.40;;;;;;5031009;28;20048;-81
2021/10/05 03:27:17;;;;;;;2.92;2.83;;;16.10;75.40;;;;;;5037753;28;20037;-81
2021/10/05 03:29:44;;;;;;;3.95;3.15;;;16.10;75.50;;;;;;5037234;28;20506;-82
2021/10/05 03:32:10;;;;;;;3.10;3.00;;;16.10;75.50;;;;;;5019658;28;20042;-81
2021/10/05 03:34:36;;;;;;;3.17;2.97;;;16.10;75.60;;;;;;5037201;28;20060;-81
2021/10/05 03:37:02;;;;;;;2.90;2.80;;;16.10;75.50;;;;;;5037354;28;20032;-81
2021/10/05 03:39:28;;;;;;;3.00;2.90;;;16.10;75.50;;;;;;5036154;28;20385;-81
2021/10/05 03:41:55;;;;;;;3.90;3.58;;;16.20;75.60;;;;;;5037109;28;20052;-82
2021/10/05 03:44:21;;;;;;;2.78;2.67;;;16.20;75.60;;;;;;5036222;28;20029;-81
2021/10/05 03:46:47;;;;;;;2.80;2.70;;;16.20;75.60;;;;;;5037109;28;20037;-81
2021/10/05 03:49:13;;;;;;;2.72;2.58;;;16.20;75.60;;;;;;5024313;28;20037;-82
2021/10/05 03:51:39;;;;;;;2.80;2.70;;;16.20;75.70;;;;;;5069289;28;20045;-82
2021/10/05 03:54:05;;;;;;;2.95;2.80;;;16.20;75.60;;;;;;5034818;28;20032;-82
2021/10/05 03:56:31;;;;;;;3.05;2.95;;;16.20;75.60;;;;;;5035614;28;20044;-81
2021/10/05 03:58:57;;;;;;;3.10;3.00;;;16.20;75.60;;;;;;5031671;28;20048;-82
2021/10/05 04:01:23;;;;;;;3.97;3.78;;;16.30;75.70;;;;;;5033942;28;20045;-81
2021/10/05 04:03:49;;;;;;;3.30;3.20;;;16.30;76.50;;;;;;5034396;28;20022;-81
2021/10/05 04:06:15;;;;;;;2.95;2.85;;;16.30;75.80;;;;;;5033159;28;20044;-81
2021/10/05 04:08:41;;;;;;;3.10;3.00;;;16.30;75.80;;;;;;5033911;28;20030;-81
2021/10/05 04:11:08;;;;;;;2.97;2.88;;;16.30;75.90;;;;;;5033438;28;20025;-80
2021/10/05 04:13:34;;;;;;;3.25;3.15;;;16.30;75.90;;;;;;5024128;28;20473;-81
2021/10/05 04:16:01;;;;;;;3.30;3.20;;;16.30;76.00;;;;;;5032357;28;20043;-81
2021/10/05 04:18:27;;;;;;;2.90;2.80;;;16.20;76.10;;;;;;5034273;28;20057;-80
2021/10/05 04:20:53;;;;;;;9.43;9.00;;;16.30;76.20;;;;;;5033699;28;20045;-82
2021/10/05 04:23:19;;;;;;;3.40;3.30;;;16.30;76.10;;;;;;5029762;28;20061;-81
2021/10/05 04:25:45;;;;;;;3.70;3.50;;;16.30;76.20;;;;;;5032735;28;20033;-81
2021/10/05 04:28:11;;;;;;;3.25;3.15;;;16.30;76.20;;;;;;5032727;28;20029;-82
2021/10/05 04:30:37;;;;;;;3.10;3.00;;;16.30;76.20;;;;;;5031652;28;20037;-81
2021/10/05 04:33:03;;;;;;;3.25;3.15;;;16.30;76.30;;;;;;5031308;28;20033;-82
2021/10/05 04:35:29;;;;;;;3.00;2.90;;;16.20;76.30;;;;;;5032376;28;20041;-80
2021/10/05 04:37:55;;;;;;;3.28;3.17;;;16.30;76.30;;;;;;5015424;28;20037;-82
2021/10/05 04:40:21;;;;;;;3.00;2.90;;;16.30;76.40;;;;;;5030959;28;20053;-81
2021/10/05 04:42:48;;;;;;;3.45;3.35;;;16.30;76.30;;;;;;5032285;28;20029;-82
2021/10/05 04:45:14;;;;;;;3.40;3.20;;;16.30;76.30;;;;;;5032696;28;20040;-82
2021/10/05 04:47:40;;;;;;;3.28;3.17;;;16.30;76.40;;;;;;5031502;28;20388;-81
2021/10/05 04:50:07;;;;;;;10.73;3.35;;;16.30;76.40;;;;;;5032630;28;20036;-81
2021/10/05 04:52:33;;;;;;;3.15;3.00;;;16.30;76.40;;;;;;5031553;28;20037;-80
2021/10/05 04:54:59;;;;;;;3.25;3.15;;;16.30;76.50;;;;;;5032065;28;20383;-81
2021/10/05 04:57:25;;;;;;;3.28;3.10;;;16.30;76.50;;;;;;5033665;28;20024;-80
2021/10/05 04:59:51;;;;;;;3.25;3.15;;;16.30;76.50;;;;;;5032482;28;20045;-80
2021/10/05 05:02:17;;;;;;;3.13;3.03;;;16.30;76.60;;;;;;5031623;28;20037;-81
2021/10/05 05:04:43;;;;;;;3.70;3.50;;;16.30;76.70;;;;;;5031392;28;20056;-81
2021/10/05 05:07:09;;;;;;;3.20;3.10;;;16.30;76.70;;;;;;5032300;28;20025;-81
2021/10/05 05:09:35;;;;;;;3.20;3.10;;;16.30;76.70;;;;;;5024655;28;20038;-81
2021/10/05 05:12:02;;;;;;;3.20;3.10;;;16.30;76.70;;;;;;5031125;28;20045;-80
2021/10/05 05:14:28;;;;;;;3.13;3.03;;;16.30;76.80;;;;;;5032532;28;20033;-80
2021/10/05 05:16:54;;;;;;;3.20;3.10;;;16.40;76.90;;;;;;5030725;28;20036;-80
2021/10/05 05:19:20;;;;;;;4.55;4.32;;;16.40;76.90;;;;;;5032319;28;20033;-80
2021/10/05 05:21:46;;;;;;;5.60;5.13;;;16.40;77.00;;;;;;5032627;28;20040;-79
2021/10/05 05:24:12;;;;;;;3.38;3.28;;;16.40;76.90;;;;;;5031691;28;20455;-80
2021/10/05 05:26:38;;;;;;;3.33;3.22;;;16.40;76.90;;;;;;5030873;28;20049;-80
2021/10/05 05:29:04;;;;;;;3.42;3.33;;;16.40;77.00;;;;;;5031670;28;20036;-80
2021/10/05 05:31:30;;;;;;;3.28;3.17;;;16.40;77.00;;;;;;5030459;28;20499;-80
2021/10/05 05:33:56;;;;;;;3.33;3.22;;;16.40;77.00;;;;;;5032372;28;20033;-79
2021/10/05 05:36:23;;;;;;;3.25;3.15;;;16.40;77.00;;;;;;5030374;28;20029;-79
2021/10/05 05:38:49;;;;;;;4.22;4.03;;;16.40;77.10;;;;;;5031613;28;20504;-79
2021/10/05 05:41:15;;;;;;;3.40;3.28;;;16.40;77.10;;;;;;5032092;28;20033;-79
2021/10/05 05:43:41;;;;;;;3.50;3.38;;;16.40;77.10;;;;;;5030370;28;20369;-79
2021/10/05 05:46:07;;;;;;;3.40;3.30;;;16.40;77.20;;;;;;5031524;28;20045;-79
2021/10/05 05:48:33;;;;;;;3.33;3.22;;;16.50;77.30;;;;;;5031740;28;20033;-79
2021/10/05 05:50:59;;;;;;;3.17;3.08;;;16.50;77.30;;;;;;5030380;28;20033;-79
2021/10/05 05:53:25;;;;;;;3.45;3.35;;;16.50;77.30;;;;;;5031198;28;20494;-80
2021/10/05 05:55:51;;;;;;;3.38;3.28;;;16.50;77.30;;;;;;5014365;28;20037;-79
2021/10/05 05:58:18;;;;;;;3.22;3.13;;;16.50;77.40;;;;;;5031550;28;20044;-79
2021/10/05 06:00:44;;;;;;;3.20;3.10;;;16.50;77.50;;;;;;5029079;28;20412;-80
2021/10/05 06:03:11;;;;;;;3.22;3.13;;;16.50;77.50;;;;;;5031575;28;20037;-79
2021/10/05 06:05:38;;;;;;;3.40;3.30;;;16.50;77.40;;;;;;5013945;28;20037;-79
2021/10/05 06:08:04;;;;;;;3.28;3.17;;;16.60;77.50;;;;;;5029649;28;20034;-78
2021/10/05 06:10:30;;;;;;;3.25;3.15;;;16.60;77.50;;;;;;5031689;28;20030;-78
2021/10/05 06:12:57;;;;;;;3.40;3.30;;;16.60;77.40;;;;;;5029964;28;20044;-78
2021/10/05 06:15:23;;;;;;;3.17;3.08;;;16.70;77.50;;;;;;5014143;28;20038;-79
2021/10/05 06:17:52;;;;;;;3.30;3.20;;;16.70;77.50;;;;;;5032050;28;20500;-79
2021/10/05 06:20:23;;;;;;;3.80;3.60;;;16.70;77.40;;;;;;5029110;28;20477;-79
2021/10/05 06:22:49;;;;;;;;;;;16.70;77.50;;;;;;5031575;28;20029;-79
2021/10/05 06:25:18;;;;;;;3.70;3.50;;;16.70;77.50;;;;;;5029484;28;20422;-79
2021/10/05 06:27:44;;;;;;;5.45;5.22;;;16.70;77.60;;;;;;5031083;28;20052;-80
2021/10/05 06:30:12;;;;;;;3.65;3.47;;;16.60;77.70;;;;;;5019015;28;20034;-80
2021/10/05 06:32:38;;;;;;;3.60;3.40;;;16.50;77.80;;;;;;5029760;28;20045;-80
2021/10/05 06:35:05;;;;;;;3.70;3.50;;;16.40;77.90;;;;;;5019830;28;20428;-80
2021/10/05 06:37:31;;;;;;;3.80;3.60;;;16.30;78.10;;;;;;5025232;28;20026;-80
2021/10/05 06:39:57;;;;;;;3.47;3.38;;;16.30;78.10;;;;;;5030881;28;20076;-80
2021/10/05 06:42:23;;;;;;;3.67;3.47;;;16.20;78.20;;;;;;5031574;28;20484;-79
2021/10/05 06:44:49;;;;;;;3.75;3.55;;;16.10;78.20;;;;;;5029739;28;20030;-79
2021/10/05 06:47:15;;;;;;;4.07;3.88;;;16.00;78.30;;;;;;5034512;28;20411;-80
2021/10/05 06:49:41;;;;;;;3.63;3.42;;;15.90;78.30;;;;;;5032656;28;20028;-78
2021/10/05 06:52:07;;;;;;;3.30;3.20;;;15.90;78.30;;;;;;5035005;28;20396;-78
2021/10/05 06:54:34;;;;;;;3.38;3.28;;;15.80;78.30;;;;;;5063284;28;20472;-79
2021/10/05 06:57:00;;;;;;;3.20;3.10;;;15.80;78.30;;;;;;5042322;28;20048;-79
2021/10/05 06:59:26;;;;;;;3.10;3.00;;;15.80;78.30;;;;;;5033043;28;20033;-78
2021/10/05 07:01:52;;;;;;;3.40;3.30;;;15.80;78.20;;;;;;5058116;28;20415;-79
2021/10/05 07:04:18;;;;;;;3.45;3.35;;;15.80;78.20;;;;;;5063092;28;20033;-79
2021/10/05 07:06:45;;;;;;;3.88;3.67;;;15.80;78.30;;;;;;5031037;28;20025;-79
2021/10/05 07:09:11;;;;;;;3.60;3.40;;;15.70;78.20;;;;;;5014397;28;20035;-79
2021/10/05 07:11:37;;;;;;;3.60;3.40;;;15.70;78.10;;;;;;5029942;28;20029;-81
2021/10/05 07:14:03;;;;;;;3.80;3.60;;;15.70;78.10;;;;;;5030209;28;20033;-79
2021/10/05 07:16:29;;;;;;;3.40;3.30;;;15.70;78.10;;;;;;5030547;28;20029;-78
2021/10/05 07:18:56;;;;;;;3.67;3.47;;;15.80;78.00;;;;;;5030725;28;20041;-79
2021/10/05 07:21:23;;;;;;;3.88;3.67;;;16.10;77.30;;;;;;5032092;28;20040;-79
2021/10/05 07:23:50;;;;;;;3.50;3.35;;;16.40;76.50;;;;;;5029410;28;20038;-79
2021/10/05 07:26:16;;;;;;;7.30;7.00;;;16.80;75.60;;;;;;5062884;28;20044;-79
2021/10/05 07:28:43;;;;;;;10.48;5.60;;;17.10;74.60;;;;;;5031117;28;20483;-79
2021/10/05 07:31:09;;;;;;;5.18;4.97;;;17.40;73.80;;;;;;5031257;28;20040;-80
2021/10/05 07:33:35;;;;;;;5.80;5.50;;;17.60;73.30;;;;;;5065324;28;20507;-79
2021/10/05 07:36:01;;;;;;;4.90;4.70;;;17.90;72.90;;;;;;5034079;28;20029;-81
2021/10/05 07:38:27;;;;;;;4.70;4.50;;;18.10;72.40;;;;;;5038065;28;20025;-81
2021/10/05 07:40:53;;;;;;;6.25;5.95;;;18.40;72.00;;;;;;5042177;28;20099;-82
2021/10/05 07:43:19;;;;;;;5.70;5.40;;;18.60;71.60;;;;;;5064903;28;20029;-81
2021/10/05 07:45:47;;;;;;;5.80;5.50;;;18.80;71.20;;;;;;5033906;28;20084;-79
2021/10/05 07:48:13;;;;;;;5.65;5.40;;;19.00;70.90;;;;;;5034647;28;20603;-79
2021/10/05 07:50:39;;;;;;;6.47;6.18;;;19.20;70.50;;;;;;5034300;28;20255;-80
2021/10/05 07:53:05;;;;;;;6.78;6.47;;;19.30;70.40;;;;;;5065687;28;20036;-80
2021/10/05 07:55:32;;;;;;;6.85;6.55;;;19.30;70.20;;;;;;5049712;28;20131;-80
2021/10/05 07:57:58;;;;;;;7.18;6.88;;;19.40;70.10;;;;;;5049687;28;20522;-80
2021/10/05 08:00:25;;;;;;;7.88;7.47;;;19.60;70.10;;;;;;5034312;28;20408;-82
2021/10/05 08:02:51;;;;;;;7.63;7.32;;;19.70;70.00;;;;;;5066255;28;20037;-82
2021/10/05 08:05:19;;;;;;;8.32;7.93;;;19.80;69.70;;;;;;5065417;28;20507;-78
2021/10/05 08:07:46;;;;;;;9.20;8.80;;;19.90;69.50;;;;;;5031928;28;20046;-78
2021/10/05 08:10:13;;;;;;;7.90;7.50;;;20.00;69.40;;;;;;5033662;28;20519;-78
2021/10/05 08:12:40;;;;;;;8.20;7.80;;;20.00;69.30;;;;;;5066199;28;20021;-79
2021/10/05 08:15:07;;;;;;;8.93;8.52;;;20.00;69.40;;;;;;5030040;28;20034;-78
2021/10/05 08:17:33;;;;;;;8.48;8.07;;;20.00;69.40;;;;;;5030309;28;20028;-78
2021/10/05 08:19:59;;;;;;;8.80;8.40;;;20.00;69.50;;;;;;5048564;28;20037;-77
2021/10/05 08:22:25;;;;;;;8.40;8.00;;;20.10;69.50;;;;;;5034033;28;20037;-78
2021/10/05 08:24:51;;;;;;;9.07;8.68;;;20.10;69.50;;;;;;5033682;28;20395;-76
2021/10/05 08:27:17;;;;;;;9.73;9.23;;;20.00;69.50;;;;;;5034152;28;20038;-75
2021/10/05 08:29:45;;;;;;;8.13;7.72;;;20.00;69.70;;;;;;5033314;28;20037;-77
2021/10/05 08:32:12;;;;;;;8.82;8.43;;;20.00;69.90;;;;;;5014292;28;20041;-76
2021/10/05 08:34:38;;;;;;;7.38;7.07;;;19.80;70.10;;;;;;5032649;28;20042;-75
2021/10/05 08:37:04;;;;;;;7.70;7.38;;;19.80;70.50;;;;;;5065352;28;20025;-76
2021/10/05 08:39:30;;;;;;;8.27;7.88;;;19.70;70.50;;;;;;5033335;28;20180;-76
2021/10/05 08:41:56;;;;;;;7.15;6.85;;;19.60;70.60;;;;;;5017325;28;20072;-77
2021/10/05 08:44:24;;;;;;;7.07;6.78;;;19.60;70.90;;;;;;5064525;28;20025;-77
2021/10/05 08:46:51;;;;;;;7.47;7.18;;;19.60;70.90;;;;;;5032220;28;20042;-77
2021/10/05 08:49:19;;;;;;;7.35;7.05;;;19.60;70.70;;;;;;5065658;28;20036;-74
2021/10/05 08:51:46;;;;;;;7.40;7.07;;;19.60;70.70;;;;;;5033082;28;20399;-74
2021/10/05 08:54:12;;;;;;;8.20;7.80;;;19.60;70.70;;;;;;5030917;28;20376;-75
2021/10/05 08:56:42;;;;;;;7.10;6.80;;;19.60;70.80;;;;;;5033276;28;20829;-75
2021/10/05 08:59:09;;;;;;;8.55;7.75;;;19.60;70.70;;;;;;5031505;28;20488;-77
2021/10/05 09:01:35;;;;;;;7.10;6.80;;;19.50;70.80;;;;;;5029582;28;20042;-78
2021/10/05 09:04:03;;;;;;;6.78;6.47;;;19.40;71.10;;;;;;5031975;28;20033;-77
2021/10/05 09:06:29;;;;;;;6.53;6.22;;;19.30;71.10;;;;;;5030000;28;20014;-78
2021/10/05 09:08:55;;;;;;;8.00;7.35;;;19.30;71.10;;;;;;5024529;28;20038;-76
2021/10/05 09:11:26;;;;;;;6.97;6.68;;;19.30;71.20;;;;;;5008954;28;20021;-75
2021/10/05 09:13:54;;;;;;;6.93;6.63;;;19.20;71.20;;;;;;5030595;28;20535;-74
2021/10/05 09:16:30;;;;;;;8.18;7.70;;;19.20;71.20;;;;;;5021088;28;20060;-75
2021/10/05 09:19:16;;;;;;;7.00;6.70;;;19.30;71.00;;;;;;5033088;28;20026;-79
2021/10/05 09:21:48;;;;;;;7.05;6.75;;;19.40;70.90;;;;;;5031521;28;20037;-81
2021/10/05 09:24:28;;;;;;;7.35;7.05;;;19.30;70.60;;;;;;5013809;28;20041;-77
2021/10/05 09:27:00;;;;;;;6.57;6.28;;;19.30;70.50;;;;;;5019759;28;20034;-78
2021/10/05 09:29:30;;;;;;;8.18;7.78;;;19.30;70.50;;;;;;5028696;28;20025;-76
2021/10/05 09:32:02;;;;;;;7.85;7.50;;;19.20;70.40;;;;;;5032140;28;20408;-77
2021/10/05 09:34:38;;;;;;;6.93;6.63;;;19.20;70.50;;;;;;5027061;28;20089;-77
2021/10/05 09:37:11;;;;;;;6.05;5.75;;;19.10;70.40;;;;;;5017998;28;20025;-77
2021/10/05 09:39:43;;;;;;;6.75;6.45;;;19.00;70.30;;;;;;5019547;28;20473;-76
2021/10/05 09:42:09;;;;;;;7.55;7.13;;;19.00;70.30;;;;;;5025311;28;20041;-77
2021/10/05 09:44:35;;;;;;;7.53;7.22;;;18.90;70.10;;;;;;5030426;28;20029;-77
2021/10/05 09:47:02;;;;;;;7.35;7.05;;;18.80;70.30;;;;;;5031674;28;20377;-78
2021/10/05 09:49:28;;;;;;;7.03;6.72;;;18.80;70.30;;;;;;5032050;28;20029;-77
2021/10/05 09:52:01;;;;;;;6.95;6.65;;;18.80;70.10;;;;;;5019214;28;20053;-76
2021/10/05 09:54:27;;;;;;;7.00;6.70;;;18.90;70.00;;;;;;5030149;28;20021;-76
2021/10/05 09:56:54;;;;;;;8.57;8.18;;;19.00;69.60;;;;;;5024051;28;20045;-75
2021/10/05 09:59:20;;;;;;;7.25;6.95;;;19.10;69.40;;;;;;5027260;28;20404;-76
2021/10/05 10:01:47;;;;;;;8.25;7.85;;;19.10;69.20;;;;;;5029739;28;20061;-77
2021/10/05 10:04:14;;;;;;;8.23;7.82;;;19.10;69.20;;;;;;5031396;28;20021;-77
2021/10/05 10:06:40;;;;;;;8.80;8.40;;;19.20;69.00;;;;;;5047087;28;20033;-77
2021/10/05 10:09:07;;;;;;;8.73;8.23;;;19.30;68.90;;;;;;5028295;28;20029;-77
2021/10/05 10:11:34;;;;;;;8.65;8.25;;;19.40;68.70;;;;;;5041569;28;20365;-77
2021/10/05 10:14:00;;;;;;;8.57;8.18;;;19.40;68.50;;;;;;5029150;28;20018;-77
2021/10/05 10:16:26;;;;;;;9.30;8.70;;;19.40;68.20;;;;;;5045814;28;20040;-76
2021/10/05 10:19:01;;;;;;;7.82;7.47;;;19.30;68.30;;;;;;5063370;28;20044;-77
2021/10/05 10:21:33;;;;;;;8.85;8.32;;;19.30;68.20;;;;;;5026670;28;20052;-78
2021/10/05 10:24:13;;;;;;;8.25;7.85;;;19.20;68.20;;;;;;5025863;28;20040;-78
2021/10/05 10:26:44;;;;;;;8.52;8.13;;;19.30;68.30;;;;;;5028748;28;21035;-77
2021/10/05 10:29:13;;;;;;;8.93;8.52;;;19.30;68.00;;;;;;5028782;28;20041;-75
2021/10/05 10:31:40;;;;;;;8.25;7.85;;;19.40;67.80;;;;;;5026549;28;20503;-75
2021/10/05 10:34:07;;;;;;;8.70;8.30;;;19.50;67.60;;;;;;5005358;28;20025;-78
2021/10/05 10:36:40;;;;;;;8.75;8.35;;;19.50;67.20;;;;;;5011587;28;20522;-79
2021/10/05 10:39:10;;;;;;;8.75;8.35;;;19.40;67.00;;;;;;5030087;28;20037;-80
2021/10/05 10:41:42;;;;;;;9.27;8.67;;;19.30;67.20;;;;;;5031043;28;20067;-79
2021/10/05 10:44:11;;;;;;;9.30;8.35;;;19.20;67.30;;;;;;5029712;28;20042;-80
2021/10/05 10:46:38;;;;;;;7.47;7.18;;;19.10;67.40;;;;;;5045537;28;20041;-79
2021/10/05 10:49:11;;;;;;;8.95;8.48;;;19.10;67.30;;;;;;5027957;28;20021;-79
2021/10/05 10:51:40;;;;;;;8.82;8.43;;;19.10;67.00;;;;;;5063259;28;20038;-79
2021/10/05 10:54:16;;;;;;;8.23;7.82;;;19.10;66.70;;;;;;5031268;28;20033;-79
2021/10/05 10:56:43;;;;;;;7.82;7.43;;;19.10;66.70;;;;;;5062141;28;20504;-79
2021/10/05 10:59:10;;;;;;;8.18;7.78;;;19.20;66.60;;;;;;5029691;28;20033;-78
2021/10/05 11:01:45;;;;;;;8.55;8.15;;;19.20;66.40;;;;;;5041150;28;20049;-77
2021/10/05 11:04:12;;;;;;;8.68;8.27;;;19.30;66.10;;;;;;5030891;28;20022;-77
2021/10/05 11:06:38;;;;;;;8.13;7.72;;;19.30;66.00;;;;;;5031596;28;20022;-77
2021/10/05 11:09:05;;;;;;;8.73;8.32;;;19.20;65.80;;;;;;5033903;28;20025;-77
2021/10/05 11:11:32;;;;;;;8.18;7.78;;;19.20;66.00;;;;;;5065487;28;20476;-77
2021/10/05 11:14:01;;;;;;;8.40;8.00;;;19.20;65.80;;;;;;5033867;28;20022;-77
2021/10/05 11:16:29;;;;;;;8.25;7.85;;;19.20;65.50;;;;;;5032788;28;20033;-77
2021/10/05 11:19:05;;;;;;;8.95;8.55;;;19.20;65.30;;;;;;5017834;28;20050;-77
2021/10/05 11:21:35;;;;;;;9.10;8.70;;;19.30;65.20;;;;;;5016932;28;20520;-77
2021/10/05 11:24:02;;;;;;;8.82;8.43;;;19.20;65.10;;;;;;5033344;28;20033;-78
2021/10/05 11:26:36;;;;;;;8.90;8.50;;;19.20;65.10;;;;;;5032844;28;20399;-78
2021/10/05 11:29:03;;;;;;;10.00;9.40;;;19.10;65.10;;;;;;5034083;28;20018;-78
2021/10/05 11:31:45;;;;;;;8.65;8.25;;;19.20;64.90;;;;;;5032133;28;20029;-77
2021/10/05 11:34:12;;;;;;;8.40;8.00;;;19.20;64.50;;;;;;5033422;28;20388;-78
2021/10/05 11:36:38;;;;;;;8.35;7.95;;;19.30;64.40;;;;;;5033618;28;20030;-78
2021/10/05 11:39:04;;;;;;;9.23;8.82;;;19.40;64.10;;;;;;5034190;28;20033;-76
2021/10/05 11:41:40;;;;;;;8.30;7.90;;;19.50;63.70;;;;;;5033315;28;20503;-77
2021/10/05 11:44:16;;;;;;;9.55;9.15;;;19.60;63.50;;;;;;5032541;28;20033;-77
2021/10/05 11:47:02;;;;;;;9.35;8.95;;;19.70;63.20;;;;;;5033128;28;20040;-77
2021/10/05 11:49:33;;;;;;;9.50;9.10;;;19.80;63.00;;;;;;5033914;28;20032;-77
2021/10/05 11:51:59;;;;;;;;;;;19.80;62.90;;;;;;5033049;28;20041;-77
2021/10/05 11:54:27;;;;;;;8.82;8.43;;;19.90;62.60;;;;;;5033945;28;19912;-77
2021/10/05 11:56:53;;;;;;;10.40;9.90;;;20.00;62.40;;;;;;5016099;28;20041;-77
2021/10/05 11:59:30;;;;;;;10.13;9.48;;;20.10;62.20;;;;;;5016283;28;20021;-77
2021/10/05 12:01:57;;;;;;;16.98;10.88;;;20.20;62.00;;;;;;5032644;28;20492;-77
2021/10/05 12:04:25;;;;;;;10.32;9.85;;;20.30;61.70;;;;;;5016127;28;20400;-77
2021/10/05 12:06:53;;;;;;;10.55;10.05;;;20.50;61.50;;;;;;5033675;28;22230;-77
2021/10/05 12:09:24;;;;;;;11.13;10.63;;;20.50;61.30;;;;;;5032513;28;20026;-77
2021/10/05 12:11:51;;;;;;;11.52;11.02;;;20.50;61.20;;;;;;5016043;28;20036;-78
2021/10/05 12:14:18;;;;;;;11.63;11.13;;;20.50;61.00;;;;;;5048803;28;20037;-77
2021/10/05 12:17:04;;;;;;;11.05;10.55;;;20.50;60.90;;;;;;5043292;28;20037;-77
2021/10/05 12:19:32;;;;;;;11.82;11.23;;;20.50;60.80;;;;;;5015268;28;20404;-77
2021/10/05 12:21:58;;;;;;;11.05;10.55;;;20.50;60.80;;;;;;5032936;28;20381;-77
2021/10/05 12:24:42;;;;;;;11.45;10.95;;;20.50;60.80;;;;;;5031880;28;20518;-77
2021/10/05 12:27:09;;;;;;;10.48;9.98;;;20.30;61.10;;;;;;5030943;28;20034;-77
2021/10/05 12:29:53;;;;;;;10.77;10.27;;;20.10;61.20;;;;;;5031910;28;20021;-77
2021/10/05 12:32:19;;;;;;;10.00;9.55;;;19.90;61.30;;;;;;5015028;28;20029;-76
2021/10/05 12:34:50;;;;;;;9.60;9.20;;;19.80;61.60;;;;;;5030962;28;20391;-76
2021/10/05 12:37:16;;;;;;;9.63;9.20;;;19.60;61.70;;;;;;5032849;28;20049;-76
2021/10/05 12:39:53;;;;;;;9.00;8.60;;;19.50;61.80;;;;;;5031032;28;20052;-77
2021/10/05 12:42:19;;;;;;;9.25;8.85;;;19.50;61.70;;;;;;5011626;28;20506;-77
2021/10/05 12:44:54;;;;;;;8.93;8.52;;;19.50;61.50;;;;;;5032904;28;20030;-77
2021/10/05 12:47:20;;;;;;;9.30;8.80;;;19.50;61.40;;;;;;5031500;28;20036;-77